Time;durP1;ratioP1;P1;durP2;ratioP2;P2;SDS_P1;SDS_P2;PMS_P1;PMS_P2;Temp;Humidity;BMP_temperature;BMP_pressure;BME280_temperature;BME280_humidity;BME280_pressure;Samples;Min_cycle;Max_cycle;Signal;HPM_P1;HPM_P2
2024/01/13 00:01:28;;;;;;;;;0.00;0.00;;;;;3.00;100.00;102829.47;6208030;22;45249;-86
2024/01/13 00:03:54;;;;;;;;;0.00;0.00;;;;;3.01;100.00;102835.50;6181099;22;47214;-87
2024/01/13 00:06:19;;;;;;;;;0.00;0.00;;;;;3.03;100.00;102831.31;6182226;22;45246;-86
2024/01/13 00:08:45;;;;;;;;;0.00;0.00;;;;;3.05;100.00;102824.53;6156256;22;45526;-87
2024/01/13 00:11:10;;;;;;;;;0.00;0.00;;;;;3.08;100.00;102825.50;6181977;22;45236;-86
2024/01/13 00:13:35;;;;;;;;;0.00;0.00;;;;;3.06;100.00;102826.25;6180868;22;55534;-87
2024/01/13 00:16:01;;;;;;;;;1.00;1.00;;;;;3.03;100.00;102819.31;6207924;22;45220;-87
2024/01/13 00:18:26;;;;;;;;;0.00;0.00;;;;;3.01;100.00;102818.38;6156446;22;45515;-87
2024/01/13 00:20:52;;;;;;;;;0.00;0.00;;;;;2.97;100.00;102806.25;6181453;22;45531;-86
2024/01/13 00:23:18;;;;;;;;;6.00;6.00;;;;;3.01;100.00;102807.19;6180867;22;46130;-87
2024/01/13 00:25:43;;;;;;;;;0.00;0.00;;;;;2.97;100.00;102797.63;6208179;22;45289;-86
2024/01/13 00:28:09;;;;;;;;;0.00;0.00;;;;;2.99;100.00;102798.53;6156398;22;45224;-87
2024/01/13 00:30:34;;;;;;;;;0.00;0.00;;;;;2.98;100.00;102796.81;6181623;22;45392;-86
2024/01/13 00:32:59;;;;;;;;;0.00;0.00;;;;;3.01;100.00;102791.75;6208044;22;45539;-86
2024/01/13 00:35:25;;;;;;;;;0.00;0.00;;;;;3.00;100.00;102788.31;6181596;22;45400;-86
2024/01/13 00:37:50;;;;;;;;;0.00;0.00;;;;;3.02;100.00;102790.94;6207258;22;45313;-87
2024/01/13 00:40:16;;;;;;;;;0.00;0.00;;;;;3.04;100.00;102797.03;6156663;22;45309;-86
2024/01/13 00:42:41;;;;;;;;;0.00;0.00;;;;;3.03;100.00;102792.72;6181458;22;46092;-87
2024/01/13 00:45:07;;;;;;;;;0.00;0.00;;;;;3.02;100.00;102796.09;6181647;22;45220;-86
2024/01/13 00:47:32;;;;;;;;;0.00;0.00;;;;;2.99;100.00;102785.69;6156674;22;45335;-86
2024/01/13 00:49:58;;;;;;;;;0.00;0.00;;;;;3.00;100.00;102798.59;6181238;22;45619;-86
2024/01/13 00:52:23;;;;;;;;;0.00;0.00;;;;;2.98;100.00;102794.25;6155771;22;48093;-86
2024/01/13 00:54:49;;;;;;;;;0.00;0.00;;;;;2.99;100.00;102785.69;6207489;22;45407;-86
2024/01/13 00:57:14;;;;;;;;;1.00;1.00;;;;;2.97;100.00;102783.09;6156380;22;45984;-86
2024/01/13 00:59:39;;;;;;;;;0.00;0.00;;;;;2.98;100.00;102786.53;6207527;22;45200;-86
2024/01/13 01:02:05;;;;;;;;;0.00;0.00;;;;;2.93;100.00;102776.06;6180686;22;45406;-86
2024/01/13 01:04:30;;;;;;;;;0.00;0.00;;;;;2.96;100.00;102785.59;6181348;22;45161;-86
2024/01/13 01:06:55;;;;;;;;;1.50;1.50;;;;;2.94;100.00;102782.09;6181313;22;45266;-86
2024/01/13 01:09:21;;;;;;;;;0.00;0.00;;;;;2.88;100.00;102787.91;6207092;22;45511;-87
2024/01/13 01:11:46;;;;;;;;;0.00;0.00;;;;;2.84;100.00;102779.19;6181033;22;45349;-87
2024/01/13 01:14:12;;;;;;;;;0.00;0.00;;;;;2.86;100.00;102782.69;6155669;22;45356;-86
2024/01/13 01:16:37;;;;;;;;;0.00;0.00;;;;;2.89;100.00;102787.94;6181437;22;45250;-87
2024/01/13 01:19:02;;;;;;;;;0.00;0.00;;;;;2.88;100.00;102775.91;6180819;22;45603;-86
2024/01/13 01:21:28;;;;;;;;;1.50;1.50;;;;;2.90;100.00;102775.97;6156044;22;47837;-86
2024/01/13 01:23:53;;;;;;;;;0.00;0.00;;;;;2.98;100.00;102774.53;6180978;22;45281;-87
2024/01/13 01:26:19;;;;;;;;;0.00;0.00;;;;;2.93;100.00;102776.06;6156159;22;45300;-86
2024/01/13 01:28:45;;;;;;;;;0.00;0.00;;;;;2.90;100.00;102770.81;6156184;22;45121;-86
2024/01/13 01:31:10;;;;;;;;;0.00;0.00;;;;;2.86;100.00;102769.84;6156199;22;47240;-87
2024/01/13 01:33:36;;;;;;;;;0.00;0.00;;;;;2.82;100.00;102775.69;6207923;22;45273;-87
2024/01/13 01:36:02;;;;;;;;;0.00;0.00;;;;;2.81;100.00;102779.06;6207603;22;45229;-87
2024/01/13 01:38:28;;;;;;;;;0.00;0.00;;;;;2.82;100.00;102780.84;6181111;22;45276;-87
2024/01/13 01:40:55;;;;;;;;;0.00;0.00;;;;;2.82;100.00;102787.66;6207348;22;45267;-87
2024/01/13 01:43:21;;;;;;;;;0.00;0.00;;;;;2.79;100.00;102783.28;6155710;22;45441;-86
2024/01/13 01:45:48;;;;;;;;;0.00;0.00;;;;;2.80;100.00;102777.31;6181191;22;45198;-86
2024/01/13 01:48:14;;;;;;;;;0.00;0.00;;;;;2.81;100.00;102778.22;6156024;22;45176;-86
2024/01/13 01:50:39;;;;;;;;;0.00;0.00;;;;;2.81;100.00;102773.94;6155649;22;49478;-86
2024/01/13 01:53:05;;;;;;;;;0.00;0.00;;;;;2.83;100.00;102774.00;6180952;22;45373;-87
2024/01/13 01:55:30;;;;;;;;;0.00;0.00;;;;;2.87;100.00;102771.56;6207789;22;45420;-87
2024/01/13 01:57:58;;;;;;;;;0.00;0.00;;;;;2.89;100.00;102775.06;6180627;22;45269;-86
2024/01/13 02:00:24;;;;;;;;;0.00;0.00;;;;;2.89;100.00;102775.06;6155589;22;47087;-87
2024/01/13 02:02:49;;;;;;;;;0.00;0.00;;;;;2.92;100.00;102771.75;6156197;22;45295;-86
2024/01/13 02:05:15;;;;;;;;;0.00;0.00;;;;;2.98;100.00;102773.66;6180398;22;45333;-87
2024/01/13 02:07:41;;;;;;;;;0.00;0.00;;;;;2.97;100.00;102769.31;6180544;22;45179;-86
2024/01/13 02:10:06;;;;;;;;;0.00;0.00;;;;;2.99;100.00;102777.97;6180763;22;45977;-87
2024/01/13 02:12:32;;;;;;;;;6.00;6.00;;;;;2.95;100.00;102768.41;6207244;22;45202;-87
2024/01/13 02:14:57;;;;;;;;;0.00;0.00;;;;;2.99;100.00;102770.25;6180668;22;45463;-85
2024/01/13 02:17:23;;;;;;;;;0.00;0.00;;;;;3.00;100.00;102767.72;6181044;22;45497;-86
2024/01/13 02:19:49;;;;;;;;;0.00;0.00;;;;;2.99;100.00;102759.94;6180199;23;46931;-86
2024/01/13 02:22:14;;;;;;;;;0.67;0.67;;;;;2.98;100.00;102765.94;6180485;23;45116;-87
2024/01/13 02:24:39;;;;;;;;;0.00;0.00;;;;;2.98;100.00;102766.81;6155681;23;45209;-87
2024/01/13 02:27:05;;;;;;;;;0.00;0.00;;;;;2.96;100.00;102759.88;6155666;22;45492;-86
2024/01/13 02:29:30;;;;;;;;;0.00;0.00;;;;;2.94;100.00;102762.38;6180490;23;47259;-86
2024/01/13 02:31:55;;;;;;;;;1.00;0.25;;;;;2.91;100.00;102758.00;6179872;23;45329;-86
2024/01/13 02:34:21;;;;;;;;;0.00;0.00;;;;;2.89;100.00;102754.50;6155611;22;45259;-86
2024/01/13 02:36:46;;;;;;;;;1.00;0.00;;;;;2.86;100.00;102756.06;6181429;22;49623;-87
2024/01/13 02:39:12;;;;;;;;;0.50;0.00;;;;;2.83;100.00;102749.13;6206704;22;46886;-87
2024/01/13 02:41:37;;;;;;;;;0.00;0.00;;;;;2.83;100.00;102754.28;6180169;23;45360;-87
2024/01/13 02:44:03;;;;;;;;;0.00;0.00;;;;;2.79;100.00;102749.84;6155934;23;45283;-87
2024/01/13 02:46:28;;;;;;;;;0.00;0.00;;;;;2.80;100.00;102751.59;6155737;23;45298;-87
2024/01/13 02:48:54;;;;;;;;;1.00;0.00;;;;;2.80;100.00;102754.16;6179979;23;45305;-86
2024/01/13 02:51:20;;;;;;;;;0.00;0.00;;;;;2.76;100.00;102748.88;6180655;23;45328;-86
2024/01/13 02:53:45;;;;;;;;;0.25;0.25;;;;;2.74;100.00;102745.38;6155388;23;45536;-87
2024/01/13 02:56:11;;;;;;;;;0.00;0.00;;;;;2.71;100.00;102736.72;6207179;22;45281;-87
2024/01/13 02:58:36;;;;;;;;;0.00;0.00;;;;;2.71;100.00;102738.41;6180537;23;45906;-86
2024/01/13 03:01:06;;;;;;;;;0.00;0.00;;;;;2.80;100.00;102736.16;6180674;23;45425;-86
2024/01/13 03:03:34;;;;;;;;;0.00;0.00;;;;;2.81;100.00;102729.34;6156471;23;45464;-87
2024/01/13 03:06:02;;;;;;;;;0.00;0.00;;;;;2.75;100.00;102721.38;6180928;22;45535;-87
2024/01/13 03:08:27;;;;;;;;;0.00;0.00;;;;;2.71;100.00;102720.41;6155142;23;47910;-87
2024/01/13 03:10:55;;;;;;;;;0.00;0.00;;;;;2.69;100.00;102717.81;6181119;23;45252;-86
2024/01/13 03:13:20;;;;;;;;;3.00;3.00;;;;;2.71;100.00;102722.97;6180524;22;45296;-87
2024/01/13 03:15:46;;;;;;;;;3.00;3.00;;;;;2.67;100.00;102711.69;6180536;23;45386;-86
2024/01/13 03:18:11;;;;;;;;;0.00;0.00;;;;;2.70;100.00;102716.97;6206618;23;45359;-87
2024/01/13 03:20:36;;;;;;;;;0.00;0.00;;;;;2.68;100.00;102715.16;6156289;22;45335;-87
2024/01/13 03:23:02;;;;;;;;;0.00;0.00;;;;;2.66;100.00;102706.53;6156678;22;61463;-87
2024/01/13 03:25:27;;;;;;;;;0.25;0.25;;;;;2.67;100.00;102706.56;6208925;22;45530;-87
2024/01/13 03:27:53;;;;;;;;;0.00;0.00;;;;;2.68;100.00;102708.31;6157365;22;49690;-87
2024/01/13 03:30:18;;;;;;;;;0.00;0.00;;;;;2.66;100.00;102703.97;6156524;22;59115;-87
2024/01/13 03:32:44;;;;;;;;;0.00;0.00;;;;;2.63;100.00;102698.69;6181896;22;45297;-86
2024/01/13 03:35:09;;;;;;;;;22.00;13.00;;;;;2.60;100.00;102686.63;6157143;22;45278;-88
2024/01/13 03:37:35;;;;;;;;;0.00;0.00;;;;;2.57;100.00;102686.50;6157258;22;47816;-87
2024/01/13 03:40:00;;;;;;;;;0.00;0.00;;;;;2.51;100.00;102682.03;6209554;22;45210;-87
2024/01/13 03:42:25;;;;;;;;;0.00;0.00;;;;;2.55;100.00;102687.28;6157339;22;45325;-87
2024/01/13 03:44:51;;;;;;;;;0.00;0.00;;;;;2.52;100.00;102677.75;6156897;22;45253;-87
2024/01/13 03:47:16;;;;;;;;;0.00;0.00;;;;;2.50;100.00;102669.97;6156185;22;47292;-87
2024/01/13 03:49:41;;;;;;;;;0.00;0.00;;;;;2.50;100.00;102667.41;6157210;22;48914;-86
2024/01/13 03:52:07;;;;;;;;;0.00;0.00;;;;;2.50;100.00;102662.25;6209092;22;45211;-87
2024/01/13 03:54:32;;;;;;;;;1.00;1.00;;;;;2.49;100.00;102657.09;6156859;22;45211;-87
2024/01/13 03:56:58;;;;;;;;;0.00;0.00;;;;;2.50;100.00;102654.53;6182435;22;47101;-86
2024/01/13 03:59:23;;;;;;;;;0.00;0.00;;;;;2.47;100.00;102651.91;6182501;22;45222;-87
2024/01/13 04:01:48;;;;;;;;;0.00;0.00;;;;;2.48;100.00;102653.63;6181710;22;45202;-87
2024/01/13 04:04:14;;;;;;;;;0.00;0.00;;;;;2.49;100.00;102655.38;6181543;22;45351;-88
2024/01/13 04:06:40;;;;;;;;;0.00;0.00;;;;;2.51;100.00;102660.59;6156856;22;52176;-87
2024/01/13 04:09:06;;;;;;;;;0.00;0.00;;;;;2.48;100.00;102653.63;6208207;22;45262;-87
2024/01/13 04:11:32;;;;;;;;;0.00;0.00;;;;;2.51;100.00;102663.16;6157144;22;45278;-88
2024/01/13 04:13:57;;;;;;;;;0.00;0.00;;;;;2.54;100.00;102662.38;6182333;22;45242;-87
2024/01/13 04:16:22;;;;;;;;;0.00;0.00;;;;;2.49;100.00;102645.09;6155822;22;58394;-87
2024/01/13 04:18:48;;;;;;;;;0.00;0.00;;;;;2.47;100.00;102636.47;6182192;22;45634;-87
2024/01/13 04:21:13;;;;;;;;;0.00;0.00;;;;;2.46;100.00;102634.69;6156090;22;57420;-87
2024/01/13 04:23:38;;;;;;;;;0.00;0.00;;;;;2.39;100.00;102637.00;6181617;22;45843;-88
2024/01/13 04:26:06;;;;;;;;;0.00;0.00;;;;;2.33;100.00;102641.09;6156770;22;47932;-87
2024/01/13 04:28:31;;;;;;;;;0.00;0.00;;;;;2.28;100.00;102640.06;6181929;22;45337;-87
2024/01/13 04:30:56;;;;;;;;;0.00;0.00;;;;;2.29;100.00;102641.81;6156629;22;45192;-86
2024/01/13 04:33:22;;;;;;;;;0.00;0.00;;;;;2.29;100.00;102644.41;6156347;22;53107;-87
2024/01/13 04:35:47;;;;;;;;;0.00;0.00;;;;;2.27;100.00;102633.19;6181497;22;47181;-88
2024/01/13 04:38:13;;;;;;;;;0.00;0.00;;;;;2.32;100.00;102641.94;6181338;22;45434;-87
2024/01/13 04:40:38;;;;;;;;;0.00;0.00;;;;;2.37;100.00;102644.66;6181627;22;45273;-87
2024/01/13 04:43:04;;;;;;;;;0.00;0.00;;;;;2.38;100.00;102640.38;6156688;22;45405;-87
2024/01/13 04:45:30;;;;;;;;;0.00;0.00;;;;;2.40;100.00;102643.91;6156420;22;47297;-87
2024/01/13 04:47:56;;;;;;;;;0.00;0.00;;;;;2.38;100.00;102637.81;6156836;22;45856;-86
2024/01/13 04:50:21;;;;;;;;;0.00;0.00;;;;;2.39;100.00;102637.00;6208375;22;45446;-87
2024/01/13 04:52:46;;;;;;;;;0.00;0.00;;;;;2.39;100.00;102632.75;6156730;22;45247;-87
2024/01/13 04:55:12;;;;;;;;;0.00;0.00;;;;;2.42;100.00;102632.84;6156900;22;56950;-87
2024/01/13 04:57:37;;;;;;;;;0.00;0.00;;;;;2.46;100.00;102629.56;6156137;22;45657;-87
2024/01/13 05:00:04;;;;;;;;;0.00;0.00;;;;;2.46;100.00;102627.00;6156092;22;45226;-87
2024/01/13 05:02:30;;;;;;;;;0.00;0.00;;;;;2.48;100.00;102627.91;6181969;22;45338;-86
2024/01/13 05:04:56;;;;;;;;;0.00;0.00;;;;;2.48;100.00;102621.91;6156536;22;48231;-87
2024/01/13 05:07:21;;;;;;;;;0.00;0.00;;;;;2.49;100.00;102613.41;6208054;22;45309;-87
2024/01/13 05:09:47;;;;;;;;;32.00;11.00;;;;;2.48;100.00;102609.91;6182304;22;45417;-87
2024/01/13 05:12:12;;;;;;;;;0.00;0.00;;;;;2.49;100.00;102608.25;6156415;22;45542;-87
2024/01/13 05:14:38;;;;;;;;;0.00;0.00;;;;;2.47;100.00;102612.44;6156205;22;48031;-87
2024/01/13 05:17:04;;;;;;;;;0.00;0.00;;;;;2.45;100.00;102609.84;6155092;22;54454;-86
2024/01/13 05:19:29;;;;;;;;;0.00;0.00;;;;;2.44;100.00;102612.34;6156199;22;45466;-87
2024/01/13 05:21:54;;;;;;;;;0.00;0.00;;;;;2.42;100.00;102599.44;6181542;22;45472;-86
2024/01/13 05:24:20;;;;;;;;;0.00;0.00;;;;;2.42;100.00;102603.72;6287341;22;68465;-87
2024/01/13 05:26:45;;;;;;;;;0.00;0.00;;;;;2.38;100.00;102599.25;6181211;22;45428;-87
2024/01/13 05:29:11;;;;;;;;;0.00;0.00;;;;;2.35;100.00;102591.47;6180915;22;45524;-86
2024/01/13 05:31:36;;;;;;;;;0.00;0.00;;;;;2.33;100.00;102589.72;6208042;22;45242;-87
2024/01/13 05:34:02;;;;;;;;;0.00;0.00;;;;;2.31;100.00;102583.63;6156045;22;47727;-87
2024/01/13 05:36:27;;;;;;;;;0.00;0.00;;;;;2.30;100.00;102583.59;6180992;22;45497;-87
2024/01/13 05:38:52;;;;;;;;;0.00;0.00;;;;;2.33;100.00;102581.13;6180797;22;48008;-87
2024/01/13 05:41:18;;;;;;;;;0.00;0.00;;;;;2.33;100.00;102578.56;6180972;22;45249;-87
2024/01/13 05:43:44;;;;;;;;;0.00;0.00;;;;;2.31;100.00;102583.63;6180330;22;46282;-87
2024/01/13 05:46:12;;;;;;;;;13.00;13.00;;;;;2.35;100.00;102586.34;6156075;22;45356;-87
2024/01/13 05:48:38;;;;;;;;;0.00;0.00;;;;;2.32;100.00;102585.41;6155726;22;45238;-87
2024/01/13 05:51:04;;;;;;;;;0.00;0.00;;;;;2.36;100.00;102577.78;6155998;22;45377;-87
2024/01/13 05:53:29;;;;;;;;;0.00;0.00;;;;;2.32;100.00;102567.41;6180850;22;46001;-87
2024/01/13 05:55:55;;;;;;;;;0.00;0.00;;;;;2.31;100.00;102570.78;6180995;22;45728;-87
2024/01/13 05:58:20;;;;;;;;;0.00;0.00;;;;;2.33;100.00;102570.84;6180861;22;45347;-87
2024/01/13 06:00:45;;;;;;;;;0.00;0.00;;;;;2.31;100.00;102565.66;6181064;22;45388;-87
2024/01/13 06:03:11;;;;;;;;;0.00;0.00;;;;;2.31;100.00;102564.78;6180508;22;48066;-87
2024/01/13 06:05:38;;;;;;;;;0.00;0.00;;;;;2.30;100.00;102556.22;6207625;22;45276;-87
2024/01/13 06:08:04;;;;;;;;;0.00;0.00;;;;;2.28;100.00;102552.69;6207799;22;45321;-87
2024/01/13 06:10:30;;;;;;;;;0.00;0.00;;;;;2.25;100.00;102554.31;6207341;22;45392;-85
2024/01/13 06:12:56;;;;;;;;;0.00;0.00;;;;;2.25;100.00;102550.03;6156234;23;47320;-88
2024/01/13 06:15:23;;;;;;;;;0.00;0.00;;;;;2.27;100.00;102556.09;6181276;23;45294;-87
2024/01/13 06:17:48;;;;;;;;;0.00;0.00;;;;;2.26;100.00;102554.34;6207823;22;45276;-87
2024/01/13 06:20:14;;;;;;;;;0.00;0.00;;;;;2.28;100.00;102552.69;6180846;23;45509;-87
2024/01/13 06:22:39;;;;;;;;;0.00;0.00;;;;;2.29;100.00;102546.75;6155768;22;48082;-87
2024/01/13 06:25:06;;;;;;;;;0.00;0.00;;;;;2.27;100.00;102542.38;6155451;23;45214;-87
2024/01/13 06:27:32;;;;;;;;;0.00;0.00;;;;;2.29;100.00;102539.03;6181413;23;45373;-86
2024/01/13 06:29:57;;;;;;;;;0.00;0.00;;;;;2.28;100.00;102528.69;6155759;22;50599;-85
2024/01/13 06:32:22;;;;;;;;;0.00;0.00;;;;;2.28;100.00;102541.53;6207194;23;45380;-87
2024/01/13 06:34:48;;;;;;;;;4.00;4.00;;;;;2.28;100.00;102539.84;6180400;23;45312;-87
2024/01/13 06:37:13;;;;;;;;;0.00;0.00;;;;;2.26;100.00;102532.91;6208303;22;45731;-87
2024/01/13 06:39:39;;;;;;;;;7.00;3.00;;;;;2.27;100.00;102538.09;6180238;23;45648;-86
2024/01/13 06:42:06;;;;;;;;;0.00;0.00;;;;;2.24;100.00;102542.25;6180663;23;45950;-86
2024/01/13 06:44:34;;;;;;;;;0.00;0.00;;;;;2.24;100.00;102552.53;6206876;22;45189;-86
2024/01/13 06:47:01;;;;;;;;;0.00;0.00;;;;;2.23;100.00;102556.81;6181078;23;45178;-87
2024/01/13 06:49:27;;;;;;;;;0.00;0.00;;;;;2.25;100.00;102555.16;6181114;23;45305;-87
2024/01/13 06:51:52;;;;;;;;;0.00;0.00;;;;;2.24;100.00;102553.41;6156352;22;46858;-87
2024/01/13 06:54:17;;;;;;;;;0.00;0.00;;;;;2.22;100.00;102551.63;6179956;22;46786;-86
2024/01/13 06:56:43;;;;;;;;;0.00;0.00;;;;;2.22;100.00;102547.34;6181913;22;55878;-86
2024/01/13 06:59:09;;;;;;;;;0.00;0.00;;;;;2.18;100.00;102535.22;6182867;22;45328;-87
2024/01/13 07:01:34;;;;;;;;;0.00;0.00;;;;;2.18;100.00;102536.94;6157219;22;47969;-86
2024/01/13 07:04:00;;;;;;;;;0.00;0.00;;;;;2.21;100.00;102531.88;6182302;22;45249;-86
2024/01/13 07:06:25;;;;;;;;;0.00;0.00;;;;;2.22;100.00;102533.63;6158672;22;45362;-90
2024/01/13 07:08:50;;;;;;;;;0.00;0.00;;;;;2.22;100.00;102533.63;6183030;22;45639;-90
2024/01/13 07:11:16;;;;;;;;;0.00;0.00;;;;;2.21;100.00;102529.31;6183919;22;58934;-89
2024/01/13 07:13:42;;;;;;;;;0.00;0.00;;;;;2.20;100.00;102523.31;6183470;22;45213;-90
2024/01/13 07:16:08;;;;;;;;;0.00;0.00;;;;;2.21;100.00;102535.34;6183858;22;45236;-90
2024/01/13 07:18:33;;;;;;;;;0.00;0.00;;;;;2.19;100.00;102531.84;6158528;22;45228;-88
2024/01/13 07:20:58;;;;;;;;;0.00;0.00;;;;;2.20;100.00;102535.28;6183444;22;46076;-90
2024/01/13 07:23:24;;;;;;;;;0.00;0.00;;;;;2.18;100.00;102537.78;6183166;22;45328;-90
2024/01/13 07:25:49;;;;;;;;;0.00;0.00;;;;;2.16;100.00;102528.28;6159132;22;45133;-89
2024/01/13 07:28:14;;;;;;;;;0.00;0.00;;;;;2.19;100.00;102528.38;6157981;22;45271;-90
2024/01/13 07:30:40;;;;;;;;;0.00;0.00;;;;;2.15;100.00;102532.53;6158287;22;63072;-90
2024/01/13 07:33:05;;;;;;;;;0.00;0.00;;;;;2.18;100.00;102527.50;6183651;22;45502;-89
2024/01/13 07:35:30;;;;;;;;;0.00;0.00;;;;;2.09;100.00;102530.63;6183572;22;45264;-90
2024/01/13 07:37:56;;;;;;;;;0.00;0.00;;;;;2.20;100.00;102523.31;6158348;22;45682;-90
2024/01/13 07:40:21;;;;;;;;;0.00;0.00;;;;;2.19;100.00;102521.56;6183845;22;46264;-89
2024/01/13 07:42:48;;;;;;;;;0.00;0.00;;;;;2.19;100.00;102506.16;6183242;22;45426;-89
2024/01/13 07:45:14;;;;;;;;;0.00;0.00;;;;;2.23;100.00;102518.28;6183041;22;45297;-89
2024/01/13 07:47:39;;;;;;;;;0.00;0.00;;;;;2.24;100.00;102521.72;6159034;22;45267;-90
2024/01/13 07:50:05;;;;;;;;;0.00;0.00;;;;;2.25;100.00;102515.75;6209170;22;46025;-90
2024/01/13 07:52:30;;;;;;;;;0.00;0.00;;;;;2.25;100.00;102515.75;6208449;22;45261;-88
2024/01/13 07:54:56;;;;;;;;;0.00;0.00;;;;;2.26;100.00;102504.66;6182729;22;45303;-90
2024/01/13 07:57:21;;;;;;;;;0.00;0.00;;;;;2.24;100.00;102502.00;6193437;22;45415;-87
2024/01/13 07:59:46;;;;;;;;;0.00;0.00;;;;;2.26;100.00;102502.06;6194355;22;56725;-85
2024/01/13 08:02:14;;;;;;;;;0.00;0.00;;;;;2.28;100.00;102500.44;6194223;22;53913;-87
2024/01/13 08:04:43;;;;;;;;;0.00;0.00;;;;;2.29;100.00;102515.91;6173564;22;45488;-91
2024/01/13 08:07:09;;;;;;;;;0.00;0.00;;;;;2.30;100.00;102509.94;6197257;22;45306;-89
2024/01/13 08:09:34;;;;;;;;;0.00;0.00;;;;;2.26;100.00;102495.22;6189599;22;47094;-85
2024/01/13 08:11:59;;;;;;;;;2.00;0.00;;;;;2.30;100.00;102498.78;6157073;22;50971;-88
2024/01/13 08:14:25;;;;;;;;;3.00;0.00;;;;;2.32;100.00;102499.69;6156698;22;58056;-86
2024/01/13 08:16:50;;;;;;;;;0.00;0.00;;;;;2.30;100.00;102486.81;6181692;22;45335;-85
2024/01/13 08:19:15;;;;;;;;;0.00;0.00;;;;;2.27;100.00;102486.72;6183447;22;62196;-91
2024/01/13 08:21:41;;;;;;;;;0.00;0.00;;;;;2.28;100.00;102492.72;6160938;22;54762;-92
2024/01/13 08:24:08;;;;;;;;;0.00;0.00;;;;;2.26;100.00;102479.81;6184740;22;45362;-89
2024/01/13 08:26:43;;;;;;;;;19.00;12.00;;;;;2.08;100.00;102481.75;6210706;22;45254;-96
2024/01/13 08:29:11;;;;;;;;;0.00;0.00;;;;;2.08;100.00;102476.63;6187044;22;45394;-94
2024/01/13 08:31:37;;;;;;;;;0.25;0.25;;;;;2.11;100.00;102487.88;6158372;22;45758;-92
2024/01/13 08:34:02;;;;;;;;;0.00;0.00;;;;;2.15;100.00;102485.44;6209971;22;45222;-89
2024/01/13 08:36:27;;;;;;;;;0.00;0.00;;;;;2.30;100.00;102471.41;6181703;22;48481;-89
2024/01/13 08:38:52;;;;;;;;;0.00;0.00;;;;;2.18;100.00;102476.13;6156648;22;71419;-91
2024/01/13 08:41:18;;;;;;;;;0.00;0.00;;;;;2.20;100.00;102482.19;6157331;22;45968;-93
2024/01/13 08:43:43;;;;;;;;;0.00;0.00;;;;;2.23;100.00;102479.72;6156515;22;66975;-90
2024/01/13 08:46:13;;;;;;;;;0.00;0.00;;;;;2.25;100.00;102484.94;6182418;22;48127;-91
2024/01/13 08:48:39;;;;;;;;;0.00;0.00;;;;;2.23;100.00;102484.88;6181524;22;47322;-92
2024/01/13 08:51:25;;;;;;;;;0.00;0.00;;;;;2.26;100.00;102484.09;6157317;22;45448;-95
2024/01/13 08:53:50;;;;;;;;;0.00;0.00;;;;;2.28;100.00;102490.16;6157057;22;45334;-92
2024/01/13 08:56:24;;;;;;;;;0.00;0.00;;;;;2.30;100.00;102504.81;6187639;22;45455;-94
2024/01/13 08:58:49;;;;;;;;;0.00;0.00;;;;;2.32;100.00;102517.69;6190223;22;46935;-95
2024/01/13 09:01:15;;;;;;;;;0.00;0.00;;;;;2.31;100.00;102519.41;6183023;22;45255;-88
2024/01/13 09:03:41;;;;;;;;;0.00;0.00;;;;;2.32;100.00;102520.25;6210623;22;45573;-90
2024/01/13 09:06:07;;;;;;;;;0.00;0.00;;;;;2.33;100.00;102520.31;6210046;22;45382;-87
2024/01/13 09:08:32;;;;;;;;;0.00;0.00;;;;;2.38;100.00;102530.78;6182472;22;45380;-86
2024/01/13 09:10:57;;;;;;;;;0.00;0.00;;;;;2.38;100.00;102528.19;6182568;22;48865;-88
2024/01/13 09:13:23;;;;;;;;;0.00;0.00;;;;;2.37;100.00;102534.16;6158603;22;45194;-88
2024/01/13 09:15:48;;;;;;;;;3.00;3.00;;;;;2.39;100.00;102531.63;6157522;22;48003;-90
2024/01/13 09:18:13;;;;;;;;;0.00;0.00;;;;;2.39;100.00;102523.94;6156791;22;58290;-86
2024/01/13 09:20:39;;;;;;;;;0.00;0.00;;;;;2.39;100.00;102523.94;6182123;22;45305;-87
2024/01/13 09:23:04;;;;;;;;;0.75;0.75;;;;;2.39;100.00;102519.66;6209699;22;45285;-89
2024/01/13 09:25:29;;;;;;;;;1.00;1.00;;;;;2.39;100.00;102522.22;6157220;22;45635;-91
2024/01/13 09:27:55;;;;;;;;;0.00;0.00;;;;;2.39;100.00;102508.50;6181767;22;59399;-90
2024/01/13 09:30:22;;;;;;;;;0.00;0.00;;;;;2.40;100.00;102499.97;6208335;22;45332;-91
2024/01/13 09:32:47;;;;;;;;;0.00;0.00;;;;;2.39;100.00;102490.50;6182455;22;45182;-91
2024/01/13 09:35:12;;;;;;;;;0.00;0.00;;;;;2.45;100.00;102508.69;6208293;22;45155;-92
2024/01/13 09:37:38;;;;;;;;;0.00;0.00;;;;;2.44;100.00;102517.25;6156458;22;57459;-92
2024/01/13 09:40:04;;;;;;;;;0.00;0.00;;;;;2.45;100.00;102527.59;6182047;22;49373;-92
2024/01/13 09:42:31;;;;;;;;;0.00;0.00;;;;;2.45;100.00;102517.31;6182424;22;45407;-91
2024/01/13 09:44:57;;;;;;;;;0.50;0.50;;;;;2.44;100.00;102515.53;6182306;22;45568;-90
2024/01/13 09:47:22;;;;;;;;;3.00;3.00;;;;;2.44;100.00;102515.53;6182150;22;45475;-91
2024/01/13 09:49:50;;;;;;;;;0.00;0.00;;;;;2.45;100.00;102536.97;6156250;22;45297;-92
2024/01/13 09:52:16;;;;;;;;;1.00;1.00;;;;;2.45;100.00;102547.25;6207411;22;45308;-90
2024/01/13 09:54:43;;;;;;;;;0.00;0.00;;;;;2.41;100.00;102541.13;6181433;22;45289;-91
2024/01/13 09:57:08;;;;;;;;;0.25;0.25;;;;;2.42;100.00;102550.59;6182006;22;48125;-91
2024/01/13 09:59:38;;;;;;;;;0.00;0.00;;;;;2.36;100.00;102544.38;6157769;22;45440;-91
2024/01/13 10:02:03;;;;;;;;;0.00;0.00;;;;;2.37;100.00;102541.00;6182753;22;45239;-88
2024/01/13 10:04:29;;;;;;;;;0.00;0.00;;;;;2.35;100.00;102540.94;6182342;22;45340;-89
2024/01/13 10:06:54;;;;;;;;;0.00;0.00;;;;;2.31;100.00;102537.38;6155862;22;71022;-93
2024/01/13 10:09:20;;;;;;;;;0.00;0.00;;;;;2.36;100.00;102539.22;6181642;22;45213;-92
2024/01/13 10:11:46;;;;;;;;;0.00;0.00;;;;;2.33;100.00;102532.31;6182775;22;45227;-93
2024/01/13 10:14:12;;;;;;;;;0.00;0.00;;;;;2.42;100.00;102540.31;6157346;22;45522;-89
2024/01/13 10:16:38;;;;;;;;;0.00;0.00;;;;;2.43;100.00;102536.03;6181686;22;45477;-90
2024/01/13 10:19:08;;;;;;;;;0.00;0.00;;;;;2.45;100.00;102519.88;6181950;23;45287;-88
2024/01/13 10:21:38;;;;;;;;;0.00;0.00;;;;;2.46;100.00;102503.59;6182072;22;45258;-89
2024/01/13 10:24:04;;;;;;;;;0.00;0.00;;;;;2.48;100.00;102514.81;6155210;23;45359;-93
2024/01/13 10:26:30;;;;;;;;;0.00;0.00;;;;;2.56;100.00;102517.63;6181625;22;46723;-89
2024/01/13 10:28:56;;;;;;;;;1.50;1.50;;;;;2.59;100.00;102514.31;6157371;22;45418;-89
2024/01/13 10:31:22;;;;;;;;;0.00;0.00;;;;;2.61;100.00;102515.22;6183724;22;45399;-91
2024/01/13 10:33:48;;;;;;;;;0.00;0.00;;;;;2.63;100.00;102518.72;6183896;22;45320;-90
2024/01/13 10:36:15;;;;;;;;;4.00;4.00;;;;;2.64;100.00;102502.47;6158633;22;47083;-90
2024/01/13 10:38:43;;;;;;;;;0.00;0.00;;;;;2.63;100.00;102493.00;6184239;22;45222;-88
2024/01/13 10:41:09;;;;;;;;;0.00;0.00;;;;;2.65;100.00;102488.78;6157819;22;45386;-91
2024/01/13 10:43:43;;;;;;;;;0.00;0.00;;;;;2.66;100.00;102491.41;6158504;22;45204;-90
2024/01/13 10:46:11;;;;;;;;;0.00;0.00;;;;;2.67;100.00;102482.84;6209142;22;46204;-91
2024/01/13 10:48:45;;;;;;;;;6.00;6.00;;;;;2.73;100.00;102487.34;6182893;22;45255;-90
2024/01/13 10:51:33;;;;;;;;;0.00;0.00;;;;;2.73;100.00;102477.06;6158900;22;45436;-91
2024/01/13 10:53:59;;;;;;;;;0.00;0.00;;;;;2.74;100.00;102471.06;6183823;22;45497;-85
2024/01/13 10:56:37;;;;;;;;;0.00;0.00;;;;;2.74;100.00;102460.78;6211344;22;46367;-91
2024/01/13 10:59:02;;;;;;;;;0.00;0.00;;;;;2.72;100.00;102452.16;6209703;22;45263;-88
2024/01/13 11:01:28;;;;;;;;;0.00;0.00;;;;;2.71;100.00;102445.25;6157344;22;57536;-91
2024/01/13 11:03:54;;;;;;;;;0.00;0.00;;;;;2.86;100.00;102430.31;6183456;22;45155;-91
2024/01/13 11:06:40;;;;;;;;;0.00;0.00;;;;;2.90;100.00;102418.41;6210525;22;46905;-93
2024/01/13 11:09:08;;;;;;;;;0.00;0.00;;;;;2.92;100.00;102406.47;6184458;22;45396;-92
2024/01/13 11:11:44;;;;;;;;;0.00;0.00;;;;;2.99;100.00;102417.78;6184072;22;45635;-92
2024/01/13 11:14:12;;;;;;;;;3.50;3.50;;;;;3.03;100.00;102419.66;6184239;22;45223;-91
2024/01/13 11:16:43;;;;;;;;;0.00;0.00;;;;;3.04;100.00;102426.53;6158350;22;47417;-90
2024/01/13 11:19:19;;;;;;;;;0.00;0.00;;;;;3.09;100.00;102414.66;6183929;22;45255;-94